Time;durP1;ratioP1;P1;durP2;ratioP2;P2;SDS_P1;SDS_P2;PMS_P1;PMS_P2;Temp;Humidity;BMP_temperature;BMP_pressure;BME280_temperature;BME280_humidity;BME280_pressure;Samples;Min_cycle;Max_cycle;Signal;HPM_P1;HPM_P2
2022/02/09 00:02:22;;;;;;;16.60;15.33;;;9.40;99.90;;;;;;4982407;28;21078;-72
2022/02/09 00:05:15;;;;;;;16.20;15.20;;;9.40;99.90;;;;;;4978796;28;20473;-70
2022/02/09 00:07:49;;;;;;;17.23;15.93;;;9.30;99.90;;;;;;4982267;28;20478;-70
2022/02/09 00:10:17;;;;;;;16.90;15.53;;;9.30;99.90;;;;;;4982183;28;21079;-71
2022/02/09 00:12:50;;;;;;;18.60;17.30;;;9.10;99.90;;;;;;4981821;28;21001;-70
2022/02/09 00:15:34;;;;;;;16.83;15.60;;;9.10;99.90;;;;;;4977384;28;20864;-70
2022/02/09 00:18:10;;;;;;;16.70;15.60;;;9.00;99.90;;;;;;4977583;28;20564;-70
2022/02/09 00:21:03;;;;;;;16.80;15.63;;;8.90;99.90;;;;;;4977346;28;20464;-72
2022/02/09 00:29:31;;;;;;;18.40;16.90;;;8.80;99.90;;;;;;4977450;28;20502;-70
2022/02/09 00:37:43;;;;;;;17.70;16.50;;;8.50;99.90;;;;;;4967692;28;20551;-70
2022/02/09 00:40:32;;;;;;;17.20;16.00;;;8.50;99.90;;;;;;4978453;28;20841;-71
2022/02/09 00:43:26;;;;;;;16.90;15.60;;;8.60;99.90;;;;;;4977333;28;20550;-70
2022/02/09 01:02:59;;;;;;;14.20;13.30;;;9.00;99.90;;;;;;4981373;28;20501;-69
2022/02/09 01:11:35;;;;;;;14.43;13.53;;;9.00;99.90;;;;;;4977593;28;20490;-72
2022/02/09 01:39:08;;;;;;;21.17;19.37;;;9.30;99.90;;;;;;4976099;28;20473;-71
2022/02/09 01:50:59;;;;;;;23.50;21.40;;;9.30;99.90;;;;;;4958183;28;20824;-69
2022/02/09 01:55:41;;;;;;;25.27;21.60;;;9.30;99.90;;;;;;4976053;28;20463;-69
2022/02/09 01:58:08;;;;;;;23.63;21.40;;;9.30;99.90;;;;;;4983024;28;20466;-69
2022/02/09 02:00:35;;;;;;;22.57;20.33;;;9.30;99.90;;;;;;4979947;28;20476;-72
2022/02/09 02:03:02;;;;;;;24.13;21.70;;;9.30;99.90;;;;;;4980317;28;20468;-71
2022/02/09 02:05:29;;;;;;;22.57;20.50;;;9.40;99.90;;;;;;4973634;28;20475;-69
2022/02/09 02:08:00;;;;;;;22.90;20.80;;;9.30;99.90;;;;;;4976825;28;20490;-70
2022/02/09 02:10:36;;;;;;;21.80;20.00;;;9.30;99.90;;;;;;4976054;28;20499;-70
2022/02/09 02:13:15;;;;;;;22.53;20.43;;;9.30;99.90;;;;;;4976541;28;20487;-70
2022/02/09 02:18:32;;;;;;;22.70;20.80;;;9.30;99.90;;;;;;4969216;28;21057;-69
2022/02/09 02:21:11;;;;;;;22.50;20.50;;;9.20;99.90;;;;;;4976692;28;20463;-71
2022/02/09 02:24:01;;;;;;;21.70;19.80;;;9.30;99.90;;;;;;4973604;28;20558;-71
2022/02/09 02:26:42;;;;;;;22.10;20.10;;;9.20;99.90;;;;;;4969943;28;20471;-71
2022/02/09 02:29:27;;;;;;;23.03;20.40;;;9.00;99.90;;;;;;4978369;28;20528;-72
2022/02/09 02:37:54;;;;;;;22.10;20.20;;;9.10;99.90;;;;;;4999256;28;20944;-71
2022/02/09 02:57:12;;;;;;;21.83;19.97;;;9.20;99.90;;;;;;4973197;28;20499;-69
2022/02/09 03:07:41;;;;;;;23.90;21.60;;;9.10;99.90;;;;;;4975881;28;20476;-69
2022/02/09 03:11:16;;;;;;;21.93;20.03;;;8.80;99.90;;;;;;5123688;27;20522;-70
2022/02/09 03:13:52;;;;;;;21.17;19.37;;;8.80;99.90;;;;;;5088812;28;20481;-71
2022/02/09 03:16:28;;;;;;;24.00;21.80;;;8.80;99.90;;;;;;5091894;28;20467;-71
2022/02/09 03:21:44;;;;;;;23.30;20.80;;;8.90;99.90;;;;;;5087553;28;20477;-72
2022/02/09 03:24:15;;;;;;;24.30;21.73;;;8.90;99.90;;;;;;5088178;28;20491;-70
2022/02/09 03:43:45;;;;;;;21.33;19.20;;;9.00;99.90;;;;;;5089549;28;21140;-70
2022/02/09 03:46:23;;;;;;;18.70;17.17;;;8.90;99.90;;;;;;5097362;28;20466;-70
2022/02/09 03:49:03;;;;;;;20.60;18.70;;;9.00;99.90;;;;;;5099954;28;21007;-72
2022/02/09 03:51:46;;;;;;;18.93;17.43;;;9.00;99.90;;;;;;5097277;28;21074;-71
2022/02/09 03:54:21;;;;;;;18.00;16.50;;;9.00;99.90;;;;;;5088784;28;20464;-69
2022/02/09 03:57:01;;;;;;;18.40;16.90;;;9.00;99.90;;;;;;5092001;28;20465;-72
2022/02/09 03:59:32;;;;;;;18.90;17.33;;;9.00;99.90;;;;;;5091769;28;20468;-70
2022/02/09 04:01:59;;;;;;;17.77;16.50;;;9.10;99.90;;;;;;5090360;28;20462;-70
2022/02/09 04:04:26;;;;;;;18.47;17.07;;;9.20;99.90;;;;;;5091529;28;20456;-71
2022/02/09 04:06:53;;;;;;;18.60;17.10;;;9.20;99.90;;;;;;5095773;28;20460;-70
2022/02/09 04:09:28;;;;;;;18.50;17.20;;;9.20;99.90;;;;;;5099455;28;20822;-73
2022/02/09 04:12:02;;;;;;;18.70;17.13;;;9.30;99.90;;;;;;5094889;28;20533;-72
2022/02/09 04:14:39;;;;;;;17.57;16.27;;;9.30;99.90;;;;;;5089925;28;20459;-73
2022/02/09 04:17:26;;;;;;;17.40;16.20;;;9.20;99.90;;;;;;5090908;28;20924;-70
2022/02/09 04:20:14;;;;;;;17.73;16.53;;;9.20;99.90;;;;;;5091873;28;20823;-70
2022/02/09 04:36:00;;;;;;;17.50;16.30;;;9.20;99.90;;;;;;5078907;28;20464;-73
2022/02/09 04:36:48;;;;;;;17.40;16.00;;;9.30;99.90;;;;;;5076698;28;20594;-71
2022/02/09 04:39:24;;;;;;;17.73;16.23;;;9.30;99.90;;;;;;5081752;28;20458;-71
2022/02/09 04:42:05;;;;;;;18.60;17.00;;;9.10;99.90;;;;;;5079873;28;20492;-70
2022/02/09 04:44:44;;;;;;;20.00;18.30;;;9.20;99.90;;;;;;5076555;28;20514;-70
2022/02/09 04:47:29;;;;;;;19.97;18.13;;;9.20;99.90;;;;;;5082593;28;21032;-70
2022/02/09 04:50:09;;;;;;;18.43;17.03;;;9.30;99.90;;;;;;5079519;28;20477;-72
2022/02/09 04:52:55;;;;;;;18.27;16.77;;;9.30;99.90;;;;;;5078446;28;20501;-70
2022/02/09 04:58:07;;;;;;;18.47;17.07;;;9.10;99.90;;;;;;5072762;28;20567;-70
2022/02/09 05:00:42;;;;;;;18.40;16.80;;;9.20;99.90;;;;;;5058256;28;20476;-70
2022/02/09 05:20:40;;;;;;;20.13;18.17;;;9.30;99.90;;;;;;5052356;28;20493;-70
2022/02/09 05:22:59;;;;;;;17.80;16.70;;;9.30;99.90;;;;;;5052535;28;20491;-70
2022/02/09 05:25:42;;;;;;;18.83;17.53;;;9.40;99.90;;;;;;5052228;28;20940;-70
2022/02/09 05:28:12;;;;;;;19.07;17.70;;;9.40;99.90;;;;;;5060519;28;20461;-69
2022/02/09 05:30:39;;;;;;;20.10;18.60;;;9.40;99.90;;;;;;5073535;28;20601;-69
2022/02/09 05:33:06;;;;;;;20.20;18.40;;;9.30;99.90;;;;;;5052305;28;20464;-71
2022/02/09 05:35:34;;;;;;;19.80;18.20;;;9.30;99.90;;;;;;5052562;28;20480;-71
2022/02/09 05:38:01;;;;;;;20.37;18.77;;;9.30;99.90;;;;;;5052038;28;20466;-69
2022/02/09 05:40:29;;;;;;;21.30;19.50;;;9.30;99.90;;;;;;5051816;28;20467;-69
2022/02/09 05:42:57;;;;;;;20.70;19.00;;;9.00;99.90;;;;;;5052913;28;20471;-71
2022/02/09 05:45:29;;;;;;;21.30;19.30;;;9.10;99.90;;;;;;5052544;28;20701;-70
2022/02/09 05:50:51;;;;;;;19.47;17.87;;;9.30;99.90;;;;;;5052861;28;20880;-70
2022/02/09 05:53:22;;;;;;;19.63;18.03;;;9.20;99.90;;;;;;5052203;28;21015;-70
2022/02/09 05:55:51;;;;;;;21.00;19.20;;;9.20;99.90;;;;;;5051746;28;20470;-70
2022/02/09 06:01:06;;;;;;;19.47;18.00;;;9.30;99.90;;;;;;5051565;28;20995;-70
2022/02/09 06:03:33;;;;;;;18.77;17.37;;;9.20;99.90;;;;;;5051188;28;20466;-72
2022/02/09 06:06:03;;;;;;;19.80;18.20;;;9.30;99.90;;;;;;5050816;28;21010;-70
2022/02/09 06:08:31;;;;;;;17.37;16.00;;;9.20;99.90;;;;;;5051244;28;20471;-70
2022/02/09 06:11:24;;;;;;;19.10;17.40;;;9.20;99.90;;;;;;5051329;28;20511;-70
2022/02/09 06:14:00;;;;;;;19.20;17.70;;;9.30;99.90;;;;;;5051064;28;20906;-69
2022/02/09 06:22:01;;;;;;;19.70;18.20;;;9.20;99.90;;;;;;5052689;28;20464;-70
2022/02/09 06:24:29;;;;;;;20.20;18.60;;;9.10;99.90;;;;;;5052763;28;20468;-71
2022/02/09 06:26:56;;;;;;;20.30;18.70;;;9.20;99.90;;;;;;5076861;28;20954;-69
2022/02/09 06:29:23;;;;;;;21.00;19.30;;;9.20;99.90;;;;;;5077359;28;20526;-69
2022/02/09 06:31:50;;;;;;;21.00;19.00;;;9.30;99.90;;;;;;5079586;28;20457;-72
2022/02/09 06:34:19;;;;;;;20.80;19.27;;;9.10;99.90;;;;;;5061833;28;21292;-70
2022/02/09 06:36:52;;;;;;;20.10;18.40;;;9.20;99.90;;;;;;5051013;28;21462;-70
2022/02/09 06:39:20;;;;;;;19.60;18.07;;;9.30;99.90;;;;;;5050610;28;20473;-70
2022/02/09 06:41:47;;;;;;;20.70;19.10;;;9.30;99.90;;;;;;5051552;28;22625;-70
2022/02/09 06:44:14;;;;;;;21.43;19.57;;;9.30;99.90;;;;;;5051996;28;20543;-70
2022/02/09 06:46:41;;;;;;;20.00;18.40;;;9.30;99.90;;;;;;5050918;28;20462;-72
2022/02/09 06:49:09;;;;;;;20.40;18.90;;;9.30;99.90;;;;;;5052050;28;20461;-70
2022/02/09 06:51:38;;;;;;;21.23;19.33;;;9.30;99.90;;;;;;5047935;28;20496;-71
2022/02/09 06:54:11;;;;;;;21.80;19.70;;;9.20;99.90;;;;;;5047495;28;20541;-70
2022/02/09 06:56:59;;;;;;;21.20;19.33;;;9.30;99.90;;;;;;5048637;28;20877;-72
2022/02/09 06:59:30;;;;;;;19.20;17.90;;;9.20;99.90;;;;;;5050805;28;20582;-71
2022/02/09 07:01:57;;;;;;;20.83;19.20;;;9.20;99.90;;;;;;5046066;28;20464;-69
2022/02/09 07:04:24;;;;;;;21.57;19.73;;;9.20;99.90;;;;;;5044733;28;21189;-72
2022/02/09 07:06:52;;;;;;;19.13;17.60;;;9.20;99.90;;;;;;5048690;28;21006;-70
2022/02/09 07:09:18;;;;;;;19.07;17.67;;;9.20;99.90;;;;;;5050195;28;21236;-69
2022/02/09 07:11:47;;;;;;;20.80;19.20;;;9.30;99.90;;;;;;5050181;28;20486;-71
2022/02/09 07:14:19;;;;;;;19.37;17.90;;;9.30;99.90;;;;;;5047797;28;20552;-70
2022/02/09 07:16:46;;;;;;;19.00;17.60;;;9.10;99.90;;;;;;5049738;28;20476;-72
2022/02/09 07:19:13;;;;;;;19.83;18.33;;;9.20;99.90;;;;;;5049138;28;20982;-72
2022/02/09 07:21:41;;;;;;;19.33;17.60;;;9.30;99.90;;;;;;5049498;28;20469;-69
2022/02/09 07:24:12;;;;;;;24.07;19.53;;;9.20;99.90;;;;;;5049175;28;20600;-72
2022/02/09 07:26:48;;;;;;;19.97;18.20;;;9.30;99.90;;;;;;5049983;28;20479;-70
2022/02/09 07:29:18;;;;;;;20.50;18.70;;;9.20;99.90;;;;;;5051074;28;20464;-70
2022/02/09 07:31:47;;;;;;;20.37;18.80;;;9.10;99.90;;;;;;5049936;28;21010;-69
2022/02/09 07:34:14;;;;;;;19.60;18.10;;;9.30;99.90;;;;;;5050052;28;20471;-70
2022/02/09 07:36:45;;;;;;;19.10;17.60;;;9.30;99.90;;;;;;5050121;28;20992;-70
2022/02/09 07:39:13;;;;;;;21.07;19.27;;;9.30;99.90;;;;;;5050129;28;20458;-71
2022/02/09 07:41:42;;;;;;;19.90;18.33;;;9.30;99.90;;;;;;5048461;28;20462;-72
2022/02/09 07:44:28;;;;;;;19.00;17.60;;;9.40;99.90;;;;;;5049689;28;20858;-70
2022/02/09 07:47:08;;;;;;;18.77;17.30;;;9.40;99.90;;;;;;5051410;28;20453;-72
2022/02/09 07:49:53;;;;;;;21.00;19.20;;;9.30;99.90;;;;;;5049456;28;20866;-72
2022/02/09 07:52:24;;;;;;;19.30;17.50;;;9.40;99.90;;;;;;5050324;28;20492;-70
2022/02/09 07:54:51;;;;;;;18.60;17.20;;;9.40;99.90;;;;;;5050382;28;20466;-71
2022/02/09 07:57:19;;;;;;;19.23;17.73;;;9.30;99.90;;;;;;5052277;28;20480;-70
2022/02/09 07:59:46;;;;;;;19.23;17.50;;;9.30;99.90;;;;;;5054983;28;20477;-71
2022/02/09 08:02:15;;;;;;;19.70;18.00;;;9.30;99.90;;;;;;5053141;28;20539;-70
2022/02/09 08:04:41;;;;;;;18.70;17.30;;;9.40;99.90;;;;;;5053564;28;20464;-70
2022/02/09 08:07:08;;;;;;;19.10;17.50;;;9.30;99.90;;;;;;5054685;28;20463;-72
2022/02/09 08:09:36;;;;;;;18.33;16.93;;;9.30;99.90;;;;;;5053902;28;20489;-70
2022/02/09 08:12:29;;;;;;;18.57;17.27;;;9.40;99.90;;;;;;5053764;28;20563;-69
2022/02/09 08:20:35;;;;;;;17.47;16.30;;;9.40;99.90;;;;;;5047938;28;20461;-70
2022/02/09 08:29:01;;;;;;;17.97;16.63;;;9.40;99.90;;;;;;5026009;28;20972;-72
2022/02/09 08:32:35;;;;;;;17.80;16.40;;;9.40;99.90;;;;;;5051749;28;20980;-70
2022/02/09 08:34:48;;;;;;;17.70;16.40;;;9.40;99.90;;;;;;5051270;28;20505;-70
2022/02/09 08:37:14;;;;;;;17.50;16.27;;;9.40;99.90;;;;;;5049832;28;21050;-69
2022/02/09 08:39:41;;;;;;;18.70;17.10;;;9.40;99.90;;;;;;5051899;28;20471;-71
2022/02/09 08:42:08;;;;;;;18.20;16.70;;;9.50;99.90;;;;;;5051753;28;20463;-70
2022/02/09 08:44:35;;;;;;;17.73;16.50;;;9.50;99.90;;;;;;5051753;28;21091;-70
2022/02/09 08:47:02;;;;;;;18.03;16.83;;;9.40;99.90;;;;;;5051788;28;20459;-71
2022/02/09 08:49:29;;;;;;;18.27;16.87;;;9.40;99.90;;;;;;5051949;28;20471;-72
2022/02/09 08:51:58;;;;;;;18.70;17.40;;;9.50;99.90;;;;;;5051998;28;20486;-71
2022/02/09 08:54:25;;;;;;;18.17;16.90;;;9.40;99.90;;;;;;5051147;28;20459;-72
2022/02/09 08:56:54;;;;;;;16.13;15.13;;;9.50;99.90;;;;;;5051343;28;20825;-70
2022/02/09 08:59:26;;;;;;;18.17;16.70;;;9.50;99.90;;;;;;5051182;28;20470;-70
2022/02/09 09:01:57;;;;;;;19.50;17.33;;;9.40;99.90;;;;;;5051699;28;21539;-70
2022/02/09 09:04:29;;;;;;;18.33;16.87;;;9.50;99.90;;;;;;5073549;28;20454;-69
2022/02/09 09:06:59;;;;;;;18.63;17.10;;;9.50;99.90;;;;;;5069931;28;20470;-72
2022/02/09 09:09:39;;;;;;;19.20;17.90;;;9.40;99.90;;;;;;5051538;28;20522;-71
2022/02/09 09:40:20;;;;;;;18.93;17.23;;;9.40;99.90;;;;;;5051413;28;20482;-70
2022/02/09 10:02:05;;;;;;;19.23;17.50;;;10.20;99.90;;;;;;5012164;28;20457;-71
2022/02/09 10:05:02;;;;;;;19.87;18.27;;;10.00;99.90;;;;;;5011856;28;20551;-74
2022/02/09 10:33:04;;;;;;;20.50;18.70;;;10.60;99.90;;;;;;5011863;28;20462;-71
2022/02/09 10:35:36;;;;;;;21.53;19.33;;;10.50;99.90;;;;;;5032926;28;20463;-71
2022/02/09 10:38:19;;;;;;;22.50;20.23;;;10.70;99.90;;;;;;5043771;28;20464;-71
2022/02/09 10:40:50;;;;;;;21.23;19.50;;;10.80;99.90;;;;;;5024089;28;20464;-71
2022/02/09 10:43:29;;;;;;;21.73;19.63;;;10.30;99.90;;;;;;5029181;28;20459;-70
2022/02/09 10:46:11;;;;;;;20.83;19.13;;;10.60;99.90;;;;;;5024537;28;20892;-71
2022/02/09 10:48:47;;;;;;;21.80;19.90;;;10.50;99.90;;;;;;5006912;28;21202;-71
2022/02/09 10:51:29;;;;;;;20.80;18.90;;;10.70;99.90;;;;;;5008072;28;20633;-72
2022/02/09 10:54:12;;;;;;;22.70;20.50;;;10.70;99.90;;;;;;5007648;28;22520;-72
2022/02/09 10:56:41;;;;;;;21.90;20.13;;;10.80;99.90;;;;;;5006662;28;21048;-72
2022/02/09 10:59:10;;;;;;;21.53;18.87;;;11.00;99.90;;;;;;5007929;28;20480;-73
2022/02/09 11:01:39;;;;;;;21.67;19.60;;;11.40;99.90;;;;;;5007169;28;20464;-72
2022/02/09 11:04:07;;;;;;;23.77;19.27;;;11.50;99.90;;;;;;5006486;28;20762;-70
2022/02/09 11:06:36;;;;;;;21.40;19.43;;;11.60;99.90;;;;;;5005700;28;21048;-71
2022/02/09 11:09:04;;;;;;;20.67;18.87;;;11.60;99.90;;;;;;5006819;28;20950;-73
2022/02/09 11:11:32;;;;;;;21.97;19.97;;;11.60;99.90;;;;;;5006639;28;20904;-71
2022/02/09 11:14:00;;;;;;;21.73;19.57;;;11.60;99.90;;;;;;5006021;28;20483;-73
2022/02/09 11:16:28;;;;;;;21.10;19.50;;;11.70;99.90;;;;;;5006026;28;20562;-72
2022/02/09 11:18:57;;;;;;;20.77;19.13;;;11.70;99.90;;;;;;5007196;28;20806;-71
2022/02/09 11:21:34;;;;;;;21.87;19.90;;;11.60;99.90;;;;;;5006948;28;20464;-71
2022/02/09 11:24:08;;;;;;;20.70;19.10;;;11.50;99.90;;;;;;5007313;28;20460;-71
2022/02/09 11:26:42;;;;;;;20.67;19.17;;;11.60;99.90;;;;;;5007876;28;20472;-74
2022/02/09 11:29:21;;;;;;;20.87;19.17;;;11.60;99.90;;;;;;5006652;28;21144;-71
2022/02/09 11:35:30;;;;;;;21.67;19.77;;;11.80;99.90;;;;;;5005732;28;21029;-71
2022/02/09 11:38:23;;;;;;;20.53;18.90;;;11.90;99.90;;;;;;5007948;28;20552;-71
2022/02/09 11:40:55;;;;;;;19.70;18.30;;;11.80;99.90;;;;;;5008524;28;20490;-71
2022/02/09 11:43:52;;;;;;;20.33;18.70;;;11.70;99.90;;;;;;5008458;28;20513;-73
2022/02/09 11:47:02;;;;;;;21.83;19.93;;;11.50;99.90;;;;;;5009800;28;21064;-74
2022/02/09 11:52:50;;;;;;;20.63;18.80;;;11.60;99.90;;;;;;5013972;28;20917;-73
2022/02/09 12:09:45;;;;;;;20.90;18.90;;;11.70;99.90;;;;;;5008839;28;20526;-71
2022/02/09 12:12:19;;;;;;;21.07;19.17;;;11.60;99.90;;;;;;5022422;28;20504;-74
2022/02/09 12:14:54;;;;;;;20.07;18.50;;;11.40;99.90;;;;;;5007983;28;20903;-70
2022/02/09 12:17:35;;;;;;;19.50;18.07;;;11.60;99.90;;;;;;5007821;28;21106;-70
2022/02/09 12:20:08;;;;;;;20.00;18.50;;;11.60;99.90;;;;;;5006671;28;20641;-71
2022/02/09 12:22:45;;;;;;;19.50;17.90;;;11.70;99.90;;;;;;5006989;28;20504;-71
2022/02/09 12:25:13;;;;;;;20.37;18.43;;;11.70;99.90;;;;;;5006638;28;20468;-70
2022/02/09 12:27:43;;;;;;;21.00;19.20;;;11.60;99.90;;;;;;5007492;28;21001;-71
2022/02/09 12:30:12;;;;;;;18.77;17.47;;;11.90;99.90;;;;;;5014732;28;20474;-71
2022/02/09 12:32:39;;;;;;;21.07;19.07;;;11.70;99.90;;;;;;5006952;28;20490;-71
2022/02/09 12:35:07;;;;;;;19.47;18.17;;;11.70;99.90;;;;;;5007978;28;20491;-72
2022/02/09 12:37:36;;;;;;;21.20;18.47;;;11.70;99.90;;;;;;5023871;28;20470;-70
2022/02/09 12:40:05;;;;;;;19.93;18.23;;;11.70;99.90;;;;;;5036474;28;20472;-72
2022/02/09 12:42:36;;;;;;;20.73;18.60;;;11.80;99.90;;;;;;5036731;28;20464;-69
2022/02/09 12:45:06;;;;;;;19.53;17.60;;;12.30;99.90;;;;;;5010660;28;20974;-70
2022/02/09 12:47:35;;;;;;;19.57;17.73;;;12.60;99.90;;;;;;5007269;28;20469;-71
2022/02/09 12:50:05;;;;;;;19.80;18.10;;;12.50;99.90;;;;;;5007265;28;20468;-71
2022/02/09 12:52:34;;;;;;;20.23;18.67;;;12.50;99.90;;;;;;5005596;28;20960;-70
2022/02/09 12:55:07;;;;;;;18.83;17.50;;;12.40;99.90;;;;;;5008599;28;21007;-70
2022/02/09 12:57:38;;;;;;;18.63;17.17;;;12.40;99.90;;;;;;5007420;28;21056;-72
2022/02/09 13:00:06;;;;;;;18.50;17.27;;;12.40;99.90;;;;;;5007383;28;20491;-70
2022/02/09 13:02:43;;;;;;;18.37;17.17;;;12.20;99.90;;;;;;5006168;28;20460;-72
2022/02/09 13:05:10;;;;;;;17.97;16.77;;;12.30;99.90;;;;;;5007320;28;20845;-70
2022/02/09 13:07:37;;;;;;;18.27;16.97;;;12.30;99.90;;;;;;5007457;28;21216;-70
2022/02/09 13:10:05;;;;;;;18.40;16.97;;;12.20;99.90;;;;;;5015887;28;20473;-70
2022/02/09 13:12:34;;;;;;;17.27;16.13;;;11.90;99.90;;;;;;5029826;28;20504;-70
2022/02/09 13:15:13;;;;;;;17.60;16.57;;;12.00;99.90;;;;;;5007067;28;20469;-70
2022/02/09 13:17:56;;;;;;;18.80;17.37;;;12.10;99.90;;;;;;5007332;28;20479;-71
2022/02/09 13:21:04;;;;;;;18.13;16.70;;;12.20;99.90;;;;;;5007013;28;20476;-71
2022/02/09 13:23:50;;;;;;;17.90;16.73;;;12.30;99.90;;;;;;5006871;28;20471;-71
2022/02/09 13:51:38;;;;;;;18.13;16.93;;;12.30;99.90;;;;;;5005077;28;20716;-70
2022/02/09 13:53:00;;;;;;;17.47;16.10;;;15.00;99.90;;;;;;5002043;28;20542;-70
2022/02/09 14:12:20;;;;;;;17.20;15.90;;;14.30;99.90;;;;;;5006428;28;21763;-71
2022/02/09 14:15:17;;;;;;;16.83;15.73;;;14.80;99.90;;;;;;5006473;28;20789;-71
2022/02/09 14:18:06;;;;;;;17.43;16.43;;;14.80;99.90;;;;;;5012368;28;20470;-69
2022/02/09 14:33:01;;;;;;;17.10;15.80;;;13.00;99.90;;;;;;4971544;28;21083;-69
2022/02/09 14:52:30;;;;;;;17.20;16.20;;;12.10;99.90;;;;;;5041219;27;20553;-70
2022/02/09 14:55:02;;;;;;;17.67;16.20;;;12.10;99.90;;;;;;5040110;28;20572;-69
2022/02/09 14:57:34;;;;;;;17.10;15.80;;;12.20;99.90;;;;;;5039442;28;20537;-68
2022/02/09 15:00:09;;;;;;;17.53;16.10;;;12.30;99.90;;;;;;5040547;28;20459;-69
2022/02/09 15:02:51;;;;;;;17.60;16.37;;;12.40;99.90;;;;;;5042034;28;20465;-69
2022/02/09 15:08:18;;;;;;;17.80;16.60;;;12.20;99.90;;;;;;5040235;28;20463;-72
2022/02/09 15:10:50;;;;;;;17.20;16.20;;;12.30;99.90;;;;;;5041106;28;21136;-69
2022/02/09 15:13:32;;;;;;;17.90;16.70;;;12.20;99.90;;;;;;5039990;28;20483;-69
2022/02/09 15:16:07;;;;;;;17.60;16.13;;;12.10;99.90;;;;;;5061061;28;20503;-70
2022/02/09 15:19:03;;;;;;;17.70;16.50;;;11.90;99.90;;;;;;5066637;28;20454;-68
2022/02/09 15:24:19;;;;;;;16.97;15.87;;;11.90;99.90;;;;;;5040217;28;20517;-69
2022/02/09 15:26:49;;;;;;;19.30;17.70;;;11.90;99.90;;;;;;5039483;28;20972;-72
2022/02/09 15:29:17;;;;;;;19.07;17.30;;;11.90;99.90;;;;;;5039440;28;20599;-69
2022/02/09 15:31:49;;;;;;;18.13;16.70;;;11.90;99.90;;;;;;5040142;28;20502;-69
2022/02/09 15:34:22;;;;;;;17.80;16.57;;;11.90;99.90;;;;;;5039860;28;20829;-69
2022/02/09 15:36:59;;;;;;;18.33;17.00;;;11.80;99.90;;;;;;5040104;28;20474;-71
2022/02/09 15:39:29;;;;;;;19.20;17.50;;;11.70;99.90;;;;;;5040152;28;20463;-69
2022/02/09 15:42:06;;;;;;;18.80;17.20;;;11.70;99.90;;;;;;5039292;28;20508;-72
2022/02/09 15:58:36;;;;;;;18.20;16.93;;;11.40;99.90;;;;;;5039287;28;20465;-69
2022/02/09 16:09:21;;;;;;;19.70;18.30;;;10.90;99.90;;;;;;5006163;28;20459;-69
2022/02/09 16:23:02;;;;;;;19.90;18.43;;;11.20;99.90;;;;;;5018717;28;20879;-71
2022/02/09 16:25:39;;;;;;;19.70;18.10;;;11.10;99.90;;;;;;5025809;28;20862;-70
2022/02/09 16:33:59;;;;;;;20.33;19.00;;;10.60;99.90;;;;;;5024112;28;20556;-69
2022/02/09 16:37:04;;;;;;;20.20;18.57;;;10.40;99.90;;;;;;5026016;28;20466;-69
2022/02/09 16:44:56;;;;;;;20.80;19.30;;;9.80;99.90;;;;;;5025452;28;20470;-71
2022/02/09 16:47:44;;;;;;;20.07;18.67;;;9.70;99.90;;;;;;5025136;28;21110;-69
2022/02/09 16:50:15;;;;;;;19.60;18.30;;;9.50;99.90;;;;;;5025325;28;20644;-69
2022/02/09 16:52:47;;;;;;;19.63;18.17;;;9.30;99.90;;;;;;5026087;28;21015;-71
2022/02/09 16:55:47;;;;;;;20.57;18.87;;;9.20;99.90;;;;;;5024259;28;20466;-69
2022/02/09 17:20:07;;;;;;;29.10;26.20;;;8.50;99.90;;;;;;5026207;28;20465;-71
2022/02/09 17:22:34;;;;;;;66.57;47.17;;;8.30;99.90;;;;;;5026430;28;20460;-70
2022/02/09 17:25:01;;;;;;;78.63;51.67;;;8.10;99.90;;;;;;5025907;28;20470;-70
2022/02/09 17:27:29;;;;;;;30.70;27.63;;;7.90;99.90;;;;;;5025236;28;20473;-70
2022/02/09 17:30:22;;;;;;;25.83;23.60;;;7.80;99.90;;;;;;5025035;28;20463;-68
2022/02/09 17:33:03;;;;;;;29.10;26.03;;;7.70;99.90;;;;;;5025907;28;20540;-72
2022/02/09 17:35:36;;;;;;;27.23;24.70;;;7.70;99.90;;;;;;5024728;28;20541;-69
2022/02/09 17:38:23;;;;;;;24.97;22.50;;;7.50;99.90;;;;;;5024785;28;20511;-72
2022/02/09 17:57:29;;;;;;;39.63;32.90;;;7.60;99.90;;;;;;4966777;28;20461;-69
2022/02/09 18:00:09;;;;;;;29.20;26.27;;;7.60;99.90;;;;;;5023312;28;20485;-69
2022/02/09 18:02:36;;;;;;;24.97;22.77;;;7.60;99.90;;;;;;5023335;28;20466;-70
2022/02/09 18:05:09;;;;;;;24.50;22.33;;;7.60;99.90;;;;;;5024957;28;20921;-72
2022/02/09 18:07:38;;;;;;;24.53;22.43;;;7.50;99.90;;;;;;5025708;28;21178;-71
2022/02/09 18:10:15;;;;;;;36.83;29.17;;;7.50;99.90;;;;;;5040272;28;20465;-71
2022/02/09 18:12:59;;;;;;;28.57;26.17;;;7.40;99.90;;;;;;5053438;28;20496;-69
2022/02/09 18:15:44;;;;;;;45.30;32.33;;;7.40;99.90;;;;;;5042109;28;20464;-69
2022/02/09 18:29:32;;;;;;;31.00;27.80;;;7.10;99.90;;;;;;4996005;28;20528;-69
2022/02/09 18:32:51;;;;;;;35.80;27.83;;;7.10;99.90;;;;;;5022881;28;20492;-69
2022/02/09 18:43:49;;;;;;;27.13;24.73;;;6.90;99.90;;;;;;4994039;28;20550;-71
2022/02/09 18:46:25;;;;;;;28.03;25.33;;;6.80;99.90;;;;;;4994156;28;20485;-68
2022/02/09 18:56:51;;;;;;;27.90;25.20;;;6.70;99.90;;;;;;5008465;28;20690;-69
2022/02/09 19:02:58;;;;;;;27.10;24.77;;;6.70;99.90;;;;;;5025292;28;20524;-69
2022/02/09 19:08:36;;;;;;;26.23;23.90;;;6.60;99.90;;;;;;5024931;28;20455;-69
2022/02/09 19:19:31;;;;;;;25.87;23.10;;;6.50;99.90;;;;;;5022623;28;20462;-69
2022/02/09 19:30:46;;;;;;;29.60;26.90;;;6.40;99.90;;;;;;5045877;28;20466;-69
2022/02/09 19:47:19;;;;;;;27.33;24.83;;;6.50;99.90;;;;;;5024643;28;20460;-69
2022/02/09 19:50:05;;;;;;;28.53;25.77;;;6.40;99.90;;;;;;5026217;28;20475;-71
2022/02/09 19:52:46;;;;;;;26.27;23.77;;;6.40;99.90;;;;;;5028712;28;20494;-70
2022/02/09 19:55:30;;;;;;;28.23;25.57;;;6.40;99.90;;;;;;5025248;28;20473;-70
2022/02/09 19:57:58;;;;;;;27.80;24.90;;;6.50;99.90;;;;;;5026327;28;20463;-69
2022/02/09 20:00:29;;;;;;;29.37;26.70;;;6.50;99.90;;;;;;5025791;28;21058;-69
2022/02/09 20:02:56;;;;;;;30.93;27.90;;;6.50;99.90;;;;;;5025563;28;20594;-70
2022/02/09 20:05:24;;;;;;;32.93;29.53;;;6.50;99.90;;;;;;5025414;28;20458;-69
2022/02/09 20:07:51;;;;;;;33.27;29.77;;;6.50;99.90;;;;;;5025812;28;20516;-69
2022/02/09 20:10:18;;;;;;;33.93;29.23;;;6.50;99.90;;;;;;5026009;28;20465;-70
2022/02/09 20:12:45;;;;;;;31.97;28.50;;;6.50;99.90;;;;;;5028167;28;20495;-69
2022/02/09 20:15:13;;;;;;;35.17;31.80;;;6.50;99.90;;;;;;5027874;28;20468;-69
2022/02/09 20:17:42;;;;;;;35.30;31.07;;;6.40;99.90;;;;;;5027525;28;20590;-69
2022/02/09 20:20:14;;;;;;;41.63;35.33;;;6.50;99.90;;;;;;5027298;28;20469;-72
2022/02/09 20:22:42;;;;;;;36.20;32.63;;;6.50;99.90;;;;;;5026695;28;20472;-69
2022/02/09 20:25:10;;;;;;;41.90;33.30;;;6.50;99.90;;;;;;5026210;28;20472;-71
2022/02/09 20:27:38;;;;;;;34.83;31.13;;;6.50;99.90;;;;;;5026673;28;20470;-68
2022/02/09 20:30:09;;;;;;;32.47;29.03;;;6.60;99.90;;;;;;5026794;28;20647;-69
2022/02/09 20:32:41;;;;;;;32.07;28.83;;;6.60;99.90;;;;;;5026835;28;20512;-70
2022/02/09 20:35:12;;;;;;;29.37;26.33;;;6.70;99.90;;;;;;5026335;28;21802;-68
2022/02/09 20:37:44;;;;;;;31.40;26.90;;;6.80;99.90;;;;;;5025557;28;20484;-69
2022/02/09 20:40:16;;;;;;;28.27;25.50;;;6.80;99.90;;;;;;5026580;28;20481;-71
2022/02/09 20:42:51;;;;;;;27.77;25.17;;;6.80;99.90;;;;;;5026534;28;20842;-70
2022/02/09 20:45:23;;;;;;;28.40;25.23;;;7.00;99.90;;;;;;5025745;28;20464;-68
2022/02/09 20:47:57;;;;;;;30.63;24.67;;;7.00;99.90;;;;;;5026664;28;20473;-69
2022/02/09 20:50:26;;;;;;;28.87;25.67;;;7.10;99.90;;;;;;5025838;28;21036;-69
2022/02/09 20:52:53;;;;;;;27.13;24.53;;;7.20;99.90;;;;;;5027889;28;21483;-70
2022/02/09 20:55:21;;;;;;;26.10;23.77;;;7.20;99.90;;;;;;5027338;28;21062;-69
2022/02/09 20:57:49;;;;;;;29.43;24.87;;;7.30;99.90;;;;;;5027780;28;20541;-69
2022/02/09 21:00:23;;;;;;;27.10;24.47;;;7.30;99.90;;;;;;5025818;28;20458;-71
2022/02/09 21:02:56;;;;;;;28.47;25.47;;;7.40;99.90;;;;;;5026059;28;20469;-70
2022/02/09 21:05:32;;;;;;;27.90;25.03;;;7.40;99.90;;;;;;5026903;28;21169;-68
2022/02/09 21:08:12;;;;;;;28.30;24.90;;;7.50;99.90;;;;;;5026437;28;20979;-69
2022/02/09 21:10:46;;;;;;;27.73;24.87;;;7.50;99.90;;;;;;5026621;28;21041;-68
2022/02/09 21:13:23;;;;;;;28.27;25.73;;;7.60;99.90;;;;;;5025967;28;20568;-69
2022/02/09 21:15:59;;;;;;;30.80;26.03;;;7.60;99.90;;;;;;5026044;28;20499;-71
2022/02/09 21:21:36;;;;;;;28.67;25.63;;;7.60;99.90;;;;;;5042918;28;20471;-68
2022/02/09 21:24:23;;;;;;;33.37;25.33;;;7.60;99.90;;;;;;5043409;28;20969;-69
2022/02/09 21:27:12;;;;;;;33.03;25.17;;;7.70;99.90;;;;;;5027116;28;21276;-70
2022/02/09 21:32:54;;;;;;;25.70;23.40;;;7.70;99.90;;;;;;5026935;28;20993;-69